sensor_id;sensor_type;location;lat;lon;timestamp;P1;durP1;ratioP1;P2;durP2;ratioP2
54157;SDS011;40065;49.894;10.358;2023-04-24T00:01:35;1.95;;;1.10;;
54157;SDS011;40065;49.894;10.358;2023-04-24T00:06:38;2.58;;;1.20;;
54157;SDS011;40065;49.894;10.358;2023-04-24T00:11:39;2.50;;;1.02;;
54157;SDS011;40065;49.894;10.358;2023-04-24T00:16:42;4.18;;;0.90;;
54157;SDS011;40065;49.894;10.358;2023-04-24T00:21:44;2.03;;;1.00;;
54157;SDS011;40065;49.894;10.358;2023-04-24T00:26:46;1.63;;;1.00;;
54157;SDS011;40065;49.894;10.358;2023-04-24T00:31:47;1.77;;;0.85;;
54157;SDS011;40065;49.894;10.358;2023-04-24T00:36:49;3.60;;;0.88;;
54157;SDS011;40065;49.894;10.358;2023-04-24T00:41:53;2.33;;;0.80;;
54157;SDS011;40065;49.894;10.358;2023-04-24T00:46:55;3.42;;;0.90;;
54157;SDS011;40065;49.894;10.358;2023-04-24T00:51:57;3.05;;;0.80;;
54157;SDS011;40065;49.894;10.358;2023-04-24T00:57:01;3.00;;;0.80;;
54157;SDS011;40065;49.894;10.358;2023-04-24T01:02:06;2.15;;;0.80;;
54157;SDS011;40065;49.894;10.358;2023-04-24T01:07:10;1.20;;;0.60;;
54157;SDS011;40065;49.894;10.358;2023-04-24T01:12:12;1.30;;;0.73;;
54157;SDS011;40065;49.894;10.358;2023-04-24T01:17:14;2.22;;;0.80;;
54157;SDS011;40065;49.894;10.358;2023-04-24T01:22:16;4.15;;;0.80;;
54157;SDS011;40065;49.894;10.358;2023-04-24T01:27:18;2.17;;;0.82;;
54157;SDS011;40065;49.894;10.358;2023-04-24T01:32:21;1.48;;;0.80;;
54157;SDS011;40065;49.894;10.358;2023-04-24T01:37:23;1.45;;;0.70;;
54157;SDS011;40065;49.894;10.358;2023-04-24T01:42:25;1.60;;;0.80;;
54157;SDS011;40065;49.894;10.358;2023-04-24T01:47:27;1.73;;;0.80;;
54157;SDS011;40065;49.894;10.358;2023-04-24T01:52:31;2.88;;;1.05;;
54157;SDS011;40065;49.894;10.358;2023-04-24T01:57:34;3.33;;;1.20;;
54157;SDS011;40065;49.894;10.358;2023-04-24T02:02:37;3.03;;;1.08;;
54157;SDS011;40065;49.894;10.358;2023-04-24T02:07:40;1.60;;;1.23;;
54157;SDS011;40065;49.894;10.358;2023-04-24T02:12:43;2.50;;;1.17;;
54157;SDS011;40065;49.894;10.358;2023-04-24T02:17:44;1.50;;;0.90;;
54157;SDS011;40065;49.894;10.358;2023-04-24T02:22:46;2.17;;;0.90;;
54157;SDS011;40065;49.894;10.358;2023-04-24T02:27:48;2.40;;;1.17;;
54157;SDS011;40065;49.894;10.358;2023-04-24T02:32:50;2.58;;;1.00;;
54157;SDS011;40065;49.894;10.358;2023-04-24T02:37:52;2.63;;;1.00;;
54157;SDS011;40065;49.894;10.358;2023-04-24T02:42:54;2.78;;;1.10;;
54157;SDS011;40065;49.894;10.358;2023-04-24T02:47:58;4.05;;;1.15;;
54157;SDS011;40065;49.894;10.358;2023-04-24T02:52:59;2.92;;;1.02;;
54157;SDS011;40065;49.894;10.358;2023-04-24T02:58:01;2.40;;;0.98;;
54157;SDS011;40065;49.894;10.358;2023-04-24T03:03:03;3.90;;;1.20;;
54157;SDS011;40065;49.894;10.358;2023-04-24T03:08:06;10.73;;;1.80;;
54157;SDS011;40065;49.894;10.358;2023-04-24T03:13:08;2.20;;;1.00;;
54157;SDS011;40065;49.894;10.358;2023-04-24T03:18:10;2.45;;;0.80;;
54157;SDS011;40065;49.894;10.358;2023-04-24T03:23:12;2.80;;;0.95;;
54157;SDS011;40065;49.894;10.358;2023-04-24T03:28:14;3.08;;;1.10;;
54157;SDS011;40065;49.894;10.358;2023-04-24T03:33:21;1.48;;;0.90;;
54157;SDS011;40065;49.894;10.358;2023-04-24T03:38:32;2.88;;;1.50;;
54157;SDS011;40065;49.894;10.358;2023-04-24T03:43:54;2.58;;;0.93;;
54157;SDS011;40065;49.894;10.358;2023-04-24T03:48:56;1.80;;;0.90;;
54157;SDS011;40065;49.894;10.358;2023-04-24T03:54:02;3.25;;;0.98;;
54157;SDS011;40065;49.894;10.358;2023-04-24T03:59:08;2.15;;;0.77;;
54157;SDS011;40065;49.894;10.358;2023-04-24T04:04:11;3.88;;;1.10;;
54157;SDS011;40065;49.894;10.358;2023-04-24T04:09:13;1.65;;;0.80;;
54157;SDS011;40065;49.894;10.358;2023-04-24T04:14:15;5.40;;;0.80;;
54157;SDS011;40065;49.894;10.358;2023-04-24T04:19:21;3.42;;;0.77;;
54157;SDS011;40065;49.894;10.358;2023-04-24T04:24:23;2.22;;;0.90;;
54157;SDS011;40065;49.894;10.358;2023-04-24T04:29:26;2.20;;;0.70;;
54157;SDS011;40065;49.894;10.358;2023-04-24T04:34:28;1.77;;;0.80;;
54157;SDS011;40065;49.894;10.358;2023-04-24T04:39:31;1.77;;;1.00;;
54157;SDS011;40065;49.894;10.358;2023-04-24T04:44:35;4.30;;;0.90;;
54157;SDS011;40065;49.894;10.358;2023-04-24T04:49:38;1.95;;;0.80;;
54157;SDS011;40065;49.894;10.358;2023-04-24T04:54:46;2.13;;;0.70;;
54157;SDS011;40065;49.894;10.358;2023-04-24T04:59:48;2.28;;;0.85;;
54157;SDS011;40065;49.894;10.358;2023-04-24T05:05:00;2.60;;;0.95;;
54157;SDS011;40065;49.894;10.358;2023-04-24T05:10:03;7.97;;;2.25;;
54157;SDS011;40065;49.894;10.358;2023-04-24T05:15:05;2.67;;;0.80;;
54157;SDS011;40065;49.894;10.358;2023-04-24T05:20:08;3.47;;;1.27;;
54157;SDS011;40065;49.894;10.358;2023-04-24T05:25:12;3.00;;;1.30;;
54157;SDS011;40065;49.894;10.358;2023-04-24T05:30:20;3.00;;;0.88;;
54157;SDS011;40065;49.894;10.358;2023-04-24T05:35:23;3.33;;;0.83;;
54157;SDS011;40065;49.894;10.358;2023-04-24T05:40:25;1.63;;;1.00;;
54157;SDS011;40065;49.894;10.358;2023-04-24T05:45:27;2.40;;;1.10;;
54157;SDS011;40065;49.894;10.358;2023-04-24T05:50:29;2.67;;;1.05;;
54157;SDS011;40065;49.894;10.358;2023-04-24T05:55:31;2.35;;;1.10;;
54157;SDS011;40065;49.894;10.358;2023-04-24T06:00:33;2.72;;;1.25;;
54157;SDS011;40065;49.894;10.358;2023-04-24T06:05:40;2.65;;;1.30;;
54157;SDS011;40065;49.894;10.358;2023-04-24T06:10:42;2.25;;;1.05;;
54157;SDS011;40065;49.894;10.358;2023-04-24T06:15:45;1.90;;;1.00;;
54157;SDS011;40065;49.894;10.358;2023-04-24T06:20:54;2.65;;;0.93;;
54157;SDS011;40065;49.894;10.358;2023-04-24T06:25:58;3.10;;;1.45;;
54157;SDS011;40065;49.894;10.358;2023-04-24T06:31:00;3.35;;;1.13;;
54157;SDS011;40065;49.894;10.358;2023-04-24T06:36:02;2.00;;;1.05;;
54157;SDS011;40065;49.894;10.358;2023-04-24T06:41:05;2.67;;;1.00;;
54157;SDS011;40065;49.894;10.358;2023-04-24T06:46:07;1.52;;;1.13;;
54157;SDS011;40065;49.894;10.358;2023-04-24T06:51:09;1.50;;;1.00;;
54157;SDS011;40065;49.894;10.358;2023-04-24T06:56:11;1.95;;;0.90;;
54157;SDS011;40065;49.894;10.358;2023-04-24T07:01:13;1.52;;;0.88;;
54157;SDS011;40065;49.894;10.358;2023-04-24T07:06:15;1.52;;;0.90;;
54157;SDS011;40065;49.894;10.358;2023-04-24T07:16:22;2.58;;;1.00;;
54157;SDS011;40065;49.894;10.358;2023-04-24T07:21:24;2.45;;;1.20;;
54157;SDS011;40065;49.894;10.358;2023-04-24T07:26:27;3.08;;;1.20;;
54157;SDS011;40065;49.894;10.358;2023-04-24T07:31:31;1.73;;;1.02;;
54157;SDS011;40065;49.894;10.358;2023-04-24T07:36:33;2.20;;;0.88;;
54157;SDS011;40065;49.894;10.358;2023-04-24T07:41:34;3.15;;;1.63;;
54157;SDS011;40065;49.894;10.358;2023-04-24T07:46:36;2.72;;;1.30;;
54157;SDS011;40065;49.894;10.358;2023-04-24T07:51:39;4.65;;;1.40;;
54157;SDS011;40065;49.894;10.358;2023-04-24T07:56:41;2.95;;;1.30;;
54157;SDS011;40065;49.894;10.358;2023-04-24T08:01:45;1.73;;;1.20;;
54157;SDS011;40065;49.894;10.358;2023-04-24T08:06:47;3.00;;;1.45;;
54157;SDS011;40065;49.894;10.358;2023-04-24T08:11:49;4.03;;;1.63;;
54157;SDS011;40065;49.894;10.358;2023-04-24T08:16:53;2.15;;;1.33;;
54157;SDS011;40065;49.894;10.358;2023-04-24T08:21:57;2.55;;;1.55;;
54157;SDS011;40065;49.894;10.358;2023-04-24T08:26:58;3.22;;;1.67;;
54157;SDS011;40065;49.894;10.358;2023-04-24T08:32:01;3.60;;;1.80;;
54157;SDS011;40065;49.894;10.358;2023-04-24T08:37:03;4.78;;;1.80;;
54157;SDS011;40065;49.894;10.358;2023-04-24T08:42:05;2.67;;;1.65;;
54157;SDS011;40065;49.894;10.358;2023-04-24T08:47:09;3.78;;;1.80;;
54157;SDS011;40065;49.894;10.358;2023-04-24T08:52:14;3.13;;;1.80;;
54157;SDS011;40065;49.894;10.358;2023-04-24T08:57:17;2.35;;;1.80;;
54157;SDS011;40065;49.894;10.358;2023-04-24T09:02:20;3.05;;;1.90;;
54157;SDS011;40065;49.894;10.358;2023-04-24T09:07:24;3.60;;;1.80;;
54157;SDS011;40065;49.894;10.358;2023-04-24T09:12:28;4.40;;;2.10;;
54157;SDS011;40065;49.894;10.358;2023-04-24T09:17:30;5.13;;;2.25;;
54157;SDS011;40065;49.894;10.358;2023-04-24T09:22:33;4.95;;;1.90;;
54157;SDS011;40065;49.894;10.358;2023-04-24T09:27:35;3.42;;;1.70;;
54157;SDS011;40065;49.894;10.358;2023-04-24T09:32:37;2.67;;;1.10;;
54157;SDS011;40065;49.894;10.358;2023-04-24T09:37:43;1.20;;;0.80;;
54157;SDS011;40065;49.894;10.358;2023-04-24T09:42:52;1.95;;;0.80;;
54157;SDS011;40065;49.894;10.358;2023-04-24T09:47:55;2.83;;;1.00;;
54157;SDS011;40065;49.894;10.358;2023-04-24T09:52:58;1.83;;;0.95;;
54157;SDS011;40065;49.894;10.358;2023-04-24T09:58:03;1.63;;;0.98;;
54157;SDS011;40065;49.894;10.358;2023-04-24T10:03:06;2.80;;;1.00;;
54157;SDS011;40065;49.894;10.358;2023-04-24T10:08:10;2.15;;;1.15;;
54157;SDS011;40065;49.894;10.358;2023-04-24T10:13:13;3.60;;;1.17;;
54157;SDS011;40065;49.894;10.358;2023-04-24T10:18:16;1.65;;;1.00;;
54157;SDS011;40065;49.894;10.358;2023-04-24T10:23:22;2.25;;;1.00;;
54157;SDS011;40065;49.894;10.358;2023-04-24T10:33:29;2.13;;;0.95;;
54157;SDS011;40065;49.894;10.358;2023-04-24T10:38:32;2.28;;;1.30;;
54157;SDS011;40065;49.894;10.358;2023-04-24T10:43:35;2.92;;;1.50;;
54157;SDS011;40065;49.894;10.358;2023-04-24T10:48:41;3.40;;;1.20;;
54157;SDS011;40065;49.894;10.358;2023-04-24T10:53:44;3.17;;;1.38;;
54157;SDS011;40065;49.894;10.358;2023-04-24T10:58:50;5.80;;;1.55;;
54157;SDS011;40065;49.894;10.358;2023-04-24T11:03:57;3.15;;;1.40;;
54157;SDS011;40065;49.894;10.358;2023-04-24T11:09:07;2.15;;;1.30;;
54157;SDS011;40065;49.894;10.358;2023-04-24T11:14:11;2.08;;;1.45;;
54157;SDS011;40065;49.894;10.358;2023-04-24T11:24:21;1.80;;;1.23;;
54157;SDS011;40065;49.894;10.358;2023-04-24T11:29:40;2.17;;;1.55;;
54157;SDS011;40065;49.894;10.358;2023-04-24T11:34:45;3.97;;;1.60;;
54157;SDS011;40065;49.894;10.358;2023-04-24T11:39:49;6.57;;;1.50;;
54157;SDS011;40065;49.894;10.358;2023-04-24T11:44:53;3.92;;;1.48;;
54157;SDS011;40065;49.894;10.358;2023-04-24T11:49:59;2.30;;;1.65;;
54157;SDS011;40065;49.894;10.358;2023-04-24T11:55:03;2.47;;;1.40;;
54157;SDS011;40065;49.894;10.358;2023-04-24T12:00:05;2.55;;;1.40;;
54157;SDS011;40065;49.894;10.358;2023-04-24T12:05:22;2.70;;;2.00;;
54157;SDS011;40065;49.894;10.358;2023-04-24T12:10:26;3.03;;;1.50;;
54157;SDS011;40065;49.894;10.358;2023-04-24T12:15:29;4.50;;;1.58;;
54157;SDS011;40065;49.894;10.358;2023-04-24T12:20:32;2.55;;;1.50;;
54157;SDS011;40065;49.894;10.358;2023-04-24T12:25:34;3.17;;;1.30;;
54157;SDS011;40065;49.894;10.358;2023-04-24T12:30:40;1.85;;;0.90;;
54157;SDS011;40065;49.894;10.358;2023-04-24T12:35:46;2.20;;;1.38;;
54157;SDS011;40065;49.894;10.358;2023-04-24T12:41:00;2.83;;;1.30;;
54157;SDS011;40065;49.894;10.358;2023-04-24T12:46:04;10.00;;;1.45;;
54157;SDS011;40065;49.894;10.358;2023-04-24T12:51:06;1.27;;;0.70;;
54157;SDS011;40065;49.894;10.358;2023-04-24T12:56:08;1.80;;;0.98;;
54157;SDS011;40065;49.894;10.358;2023-04-24T13:01:10;2.58;;;1.23;;
54157;SDS011;40065;49.894;10.358;2023-04-24T13:06:13;8.50;;;1.27;;
54157;SDS011;40065;49.894;10.358;2023-04-24T13:11:15;2.83;;;1.10;;
54157;SDS011;40065;49.894;10.358;2023-04-24T13:16:17;2.63;;;1.20;;
54157;SDS011;40065;49.894;10.358;2023-04-24T13:21:19;2.85;;;1.20;;
54157;SDS011;40065;49.894;10.358;2023-04-24T13:26:21;3.53;;;1.40;;
54157;SDS011;40065;49.894;10.358;2023-04-24T13:31:23;2.15;;;1.10;;
54157;SDS011;40065;49.894;10.358;2023-04-24T13:36:25;2.85;;;0.95;;
54157;SDS011;40065;49.894;10.358;2023-04-24T13:41:27;1.98;;;1.30;;
54157;SDS011;40065;49.894;10.358;2023-04-24T13:46:29;2.30;;;1.20;;
54157;SDS011;40065;49.894;10.358;2023-04-24T13:51:31;1.90;;;1.20;;
54157;SDS011;40065;49.894;10.358;2023-04-24T13:56:33;2.45;;;1.50;;
54157;SDS011;40065;49.894;10.358;2023-04-24T14:01:35;2.80;;;1.60;;
54157;SDS011;40065;49.894;10.358;2023-04-24T14:06:37;2.30;;;1.48;;
54157;SDS011;40065;49.894;10.358;2023-04-24T14:11:39;2.90;;;1.80;;
54157;SDS011;40065;49.894;10.358;2023-04-24T14:16:41;2.47;;;1.50;;
54157;SDS011;40065;49.894;10.358;2023-04-24T14:21:43;3.70;;;1.83;;
54157;SDS011;40065;49.894;10.358;2023-04-24T14:26:45;4.90;;;2.03;;
54157;SDS011;40065;49.894;10.358;2023-04-24T14:31:47;5.13;;;2.03;;
54157;SDS011;40065;49.894;10.358;2023-04-24T14:36:49;4.22;;;2.17;;
54157;SDS011;40065;49.894;10.358;2023-04-24T14:41:50;4.47;;;1.35;;
54157;SDS011;40065;49.894;10.358;2023-04-24T14:46:52;2.63;;;1.40;;
54157;SDS011;40065;49.894;10.358;2023-04-24T14:51:54;4.03;;;1.60;;
54157;SDS011;40065;49.894;10.358;2023-04-24T14:56:56;4.47;;;1.33;;
54157;SDS011;40065;49.894;10.358;2023-04-24T15:01:58;3.38;;;1.80;;
54157;SDS011;40065;49.894;10.358;2023-04-24T15:07:16;2.85;;;2.03;;
54157;SDS011;40065;49.894;10.358;2023-04-24T15:12:17;4.03;;;2.63;;
54157;SDS011;40065;49.894;10.358;2023-04-24T15:17:19;3.10;;;2.20;;
54157;SDS011;40065;49.894;10.358;2023-04-24T15:22:21;3.78;;;2.05;;
54157;SDS011;40065;49.894;10.358;2023-04-24T15:27:23;2.95;;;1.80;;
54157;SDS011;40065;49.894;10.358;2023-04-24T15:32:25;3.30;;;1.40;;
54157;SDS011;40065;49.894;10.358;2023-04-24T15:37:27;3.67;;;1.63;;
54157;SDS011;40065;49.894;10.358;2023-04-24T15:42:29;2.70;;;1.60;;
54157;SDS011;40065;49.894;10.358;2023-04-24T15:47:31;4.63;;;2.28;;
54157;SDS011;40065;49.894;10.358;2023-04-24T15:52:33;3.80;;;2.42;;
54157;SDS011;40065;49.894;10.358;2023-04-24T15:57:36;5.15;;;2.53;;
54157;SDS011;40065;49.894;10.358;2023-04-24T16:02:38;5.53;;;2.78;;
54157;SDS011;40065;49.894;10.358;2023-04-24T16:07:40;4.13;;;2.75;;
54157;SDS011;40065;49.894;10.358;2023-04-24T16:12:42;5.57;;;3.00;;
54157;SDS011;40065;49.894;10.358;2023-04-24T16:17:44;5.82;;;2.50;;
54157;SDS011;40065;49.894;10.358;2023-04-24T16:22:46;3.80;;;2.30;;
54157;SDS011;40065;49.894;10.358;2023-04-24T16:27:48;4.97;;;2.60;;
54157;SDS011;40065;49.894;10.358;2023-04-24T16:32:52;4.28;;;2.50;;
54157;SDS011;40065;49.894;10.358;2023-04-24T16:37:54;3.78;;;2.70;;
54157;SDS011;40065;49.894;10.358;2023-04-24T16:42:56;6.38;;;3.10;;
54157;SDS011;40065;49.894;10.358;2023-04-24T16:47:58;4.65;;;2.80;;
54157;SDS011;40065;49.894;10.358;2023-04-24T16:53:00;4.43;;;2.70;;
54157;SDS011;40065;49.894;10.358;2023-04-24T16:58:02;4.13;;;2.78;;
54157;SDS011;40065;49.894;10.358;2023-04-24T17:03:04;6.13;;;4.20;;
54157;SDS011;40065;49.894;10.358;2023-04-24T17:08:06;6.50;;;3.00;;
54157;SDS011;40065;49.894;10.358;2023-04-24T17:13:08;7.30;;;3.00;;
54157;SDS011;40065;49.894;10.358;2023-04-24T17:18:10;5.00;;;4.03;;
54157;SDS011;40065;49.894;10.358;2023-04-24T17:23:12;6.13;;;3.38;;
54157;SDS011;40065;49.894;10.358;2023-04-24T17:28:19;5.80;;;3.00;;
54157;SDS011;40065;49.894;10.358;2023-04-24T17:33:30;4.15;;;3.08;;
54157;SDS011;40065;49.894;10.358;2023-04-24T17:38:32;3.75;;;2.60;;
54157;SDS011;40065;49.894;10.358;2023-04-24T17:43:34;4.10;;;3.15;;
54157;SDS011;40065;49.894;10.358;2023-04-24T17:48:36;4.28;;;3.20;;
54157;SDS011;40065;49.894;10.358;2023-04-24T17:53:38;4.72;;;3.00;;
54157;SDS011;40065;49.894;10.358;2023-04-24T17:58:41;6.35;;;3.38;;
54157;SDS011;40065;49.894;10.358;2023-04-24T18:03:42;5.22;;;3.40;;
54157;SDS011;40065;49.894;10.358;2023-04-24T18:08:45;7.13;;;4.00;;
54157;SDS011;40065;49.894;10.358;2023-04-24T18:13:47;7.60;;;3.90;;
54157;SDS011;40065;49.894;10.358;2023-04-24T18:18:49;7.32;;;3.90;;
54157;SDS011;40065;49.894;10.358;2023-04-24T18:23:51;7.85;;;4.72;;
54157;SDS011;40065;49.894;10.358;2023-04-24T18:28:54;6.43;;;4.22;;
54157;SDS011;40065;49.894;10.358;2023-04-24T18:33:56;6.95;;;4.55;;
54157;SDS011;40065;49.894;10.358;2023-04-24T18:38:58;7.38;;;4.60;;
54157;SDS011;40065;49.894;10.358;2023-04-24T18:43:59;6.22;;;4.10;;
54157;SDS011;40065;49.894;10.358;2023-04-24T18:49:02;5.97;;;4.10;;
54157;SDS011;40065;49.894;10.358;2023-04-24T18:54:04;6.55;;;4.40;;
54157;SDS011;40065;49.894;10.358;2023-04-24T18:59:06;6.38;;;4.40;;
54157;SDS011;40065;49.894;10.358;2023-04-24T19:04:08;7.18;;;5.00;;
54157;SDS011;40065;49.894;10.358;2023-04-24T19:09:11;8.20;;;4.82;;
54157;SDS011;40065;49.894;10.358;2023-04-24T19:14:13;7.88;;;5.00;;
54157;SDS011;40065;49.894;10.358;2023-04-24T19:19:16;6.90;;;5.03;;
54157;SDS011;40065;49.894;10.358;2023-04-24T19:24:18;7.43;;;5.10;;
54157;SDS011;40065;49.894;10.358;2023-04-24T19:29:21;7.30;;;5.00;;
54157;SDS011;40065;49.894;10.358;2023-04-24T19:34:23;9.52;;;5.28;;
54157;SDS011;40065;49.894;10.358;2023-04-24T19:39:25;7.80;;;5.40;;
54157;SDS011;40065;49.894;10.358;2023-04-24T19:44:27;7.88;;;5.65;;
54157;SDS011;40065;49.894;10.358;2023-04-24T19:49:29;7.10;;;4.95;;
54157;SDS011;40065;49.894;10.358;2023-04-24T19:54:31;9.20;;;5.15;;
54157;SDS011;40065;49.894;10.358;2023-04-24T19:59:32;9.85;;;5.15;;
54157;SDS011;40065;49.894;10.358;2023-04-24T20:04:34;10.15;;;5.43;;
54157;SDS011;40065;49.894;10.358;2023-04-24T20:09:36;7.20;;;5.10;;
54157;SDS011;40065;49.894;10.358;2023-04-24T20:14:38;7.65;;;4.93;;
54157;SDS011;40065;49.894;10.358;2023-04-24T20:19:40;6.85;;;4.85;;
54157;SDS011;40065;49.894;10.358;2023-04-24T20:24:43;6.00;;;4.68;;
54157;SDS011;40065;49.894;10.358;2023-04-24T20:29:46;6.47;;;4.70;;
54157;SDS011;40065;49.894;10.358;2023-04-24T20:34:47;11.68;;;7.70;;
54157;SDS011;40065;49.894;10.358;2023-04-24T20:39:49;7.35;;;4.68;;
54157;SDS011;40065;49.894;10.358;2023-04-24T20:44:52;7.25;;;4.78;;
54157;SDS011;40065;49.894;10.358;2023-04-24T20:49:53;7.45;;;4.45;;
54157;SDS011;40065;49.894;10.358;2023-04-24T20:54:55;6.97;;;4.90;;
54157;SDS011;40065;49.894;10.358;2023-04-24T20:59:57;7.70;;;5.00;;
54157;SDS011;40065;49.894;10.358;2023-04-24T21:04:59;6.95;;;5.05;;
54157;SDS011;40065;49.894;10.358;2023-04-24T21:10:00;8.10;;;5.15;;
54157;SDS011;40065;49.894;10.358;2023-04-24T21:15:02;8.20;;;5.13;;
54157;SDS011;40065;49.894;10.358;2023-04-24T21:20:06;7.50;;;4.82;;
54157;SDS011;40065;49.894;10.358;2023-04-24T21:25:09;10.60;;;5.03;;
54157;SDS011;40065;49.894;10.358;2023-04-24T21:30:11;6.50;;;4.47;;
54157;SDS011;40065;49.894;10.358;2023-04-24T21:35:13;6.78;;;4.10;;
54157;SDS011;40065;49.894;10.358;2023-04-24T21:40:15;8.30;;;4.13;;
54157;SDS011;40065;49.894;10.358;2023-04-24T21:45:17;4.80;;;3.53;;
54157;SDS011;40065;49.894;10.358;2023-04-24T21:50:19;5.05;;;3.45;;
54157;SDS011;40065;49.894;10.358;2023-04-24T21:55:21;5.35;;;4.05;;
54157;SDS011;40065;49.894;10.358;2023-04-24T22:00:23;6.65;;;4.00;;
54157;SDS011;40065;49.894;10.358;2023-04-24T22:05:25;7.07;;;5.03;;
54157;SDS011;40065;49.894;10.358;2023-04-24T22:10:27;6.47;;;4.57;;
54157;SDS011;40065;49.894;10.358;2023-04-24T22:15:29;6.63;;;4.68;;
54157;SDS011;40065;49.894;10.358;2023-04-24T22:20:31;8.60;;;5.38;;
54157;SDS011;40065;49.894;10.358;2023-04-24T22:25:36;8.93;;;6.07;;
54157;SDS011;40065;49.894;10.358;2023-04-24T22:30:37;8.20;;;5.78;;
54157;SDS011;40065;49.894;10.358;2023-04-24T22:35:39;7.72;;;5.65;;
54157;SDS011;40065;49.894;10.358;2023-04-24T22:40:41;10.07;;;5.80;;
54157;SDS011;40065;49.894;10.358;2023-04-24T22:45:43;8.45;;;5.80;;
54157;SDS011;40065;49.894;10.358;2023-04-24T22:50:44;7.50;;;5.60;;
54157;SDS011;40065;49.894;10.358;2023-04-24T22:55:46;7.13;;;5.38;;
54157;SDS011;40065;49.894;10.358;2023-04-24T23:00:48;8.43;;;5.15;;
54157;SDS011;40065;49.894;10.358;2023-04-24T23:05:50;8.30;;;5.75;;
54157;SDS011;40065;49.894;10.358;2023-04-24T23:10:52;6.43;;;4.90;;
54157;SDS011;40065;49.894;10.358;2023-04-24T23:15:54;7.53;;;5.00;;
54157;SDS011;40065;49.894;10.358;2023-04-24T23:20:56;8.05;;;5.72;;
54157;SDS011;40065;49.894;10.358;2023-04-24T23:25:58;9.30;;;5.85;;
54157;SDS011;40065;49.894;10.358;2023-04-24T23:31:00;8.05;;;5.43;;
54157;SDS011;40065;49.894;10.358;2023-04-24T23:36:01;8.60;;;5.53;;
54157;SDS011;40065;49.894;10.358;2023-04-24T23:41:03;7.90;;;5.47;;
54157;SDS011;40065;49.894;10.358;2023-04-24T23:46:06;10.23;;;5.80;;
54157;SDS011;40065;49.894;10.358;2023-04-24T23:51:08;12.07;;;6.03;;
54157;SDS011;40065;49.894;10.358;2023-04-24T23:56:10;10.23;;;6.32;;
